פיתוח מוצר

CrowderCullen8441 | 2022.02.20 12:42 | 조회 10
פיתוח מוצר specializes in the research and development of: propulsion systems, vehicles, sports products, machinery, plastic products, shielding, gaming facilities, display stations, computer stations, constructions and more. We provide accompaniment throughout the project including production supervision and quality testing. We have extensive experience in military regulation, automotive, sports goods.
twitter facebook me2day 요즘
1,427,662개(29639/71384페이지)
LECTURE
번호 제목 글쓴이 조회 날짜
834902 See For The Most Effective Ideas About P HendrixSehested3618 8 2022.02.20 13:01
834901 Fewer Calories, More Train For Weight Lo AdairWilkinson1016 12 2022.02.20 13:01
834900 If You Don't Minecraft Server Address No DjurhuusSkov5827 15 2022.02.20 13:00
834899 Lịch Thi Đấu Bóng Đá Cup C1 Mùa Giải 202 MelchiorsenHolland4495 17 2022.02.20 13:00
834898 Online Slots Rules--There Are Only Three PridgenCantu5199 26 2022.02.20 13:00
834897 Black Camouflaged Poker Spade T-shirt cr KeithShoemaker0522 14 2022.02.20 13:00
834896 Have Questions About Chiropractic care C McClellanMahmoud5058 15 2022.02.20 12:59
834895 Báo Bóng Đá DiazFoldager3199 13 2022.02.20 12:59
834894 It Is Our Job To Coach Yourself On Web M BrinkValentine2850 8 2022.02.20 12:59
834893 79 Lat Temu Rozpoczęła Się II Wojna świa 사진 BrandstrupAllen3833 10 2022.02.20 12:59
834892 Bet On Sports - How To Place Bets On Spo HelboHarboe4248 14 2022.02.20 12:59
834891 Boost Your Human Hair Wigs With The Foll EngelSchmidt2892 9 2022.02.20 12:59
834890 What you ought to Know When Searching Fo AxelsenChristiansen9282 14 2022.02.20 12:58
834889 Chi Tiết Về 90ptv 90 Phút Television Trự WindButcher6202 20 2022.02.20 12:58
834888 Using Blackjack Strategy Card To Get - T KellerKhan7121 8 2022.02.20 12:58
834887 If You Wish Speedy Recommendations Regar PilegaardHarper4305 12 2022.02.20 12:58
834886 Learn How To Win Online Poker JosephsenPrince1014 19 2022.02.20 12:58
834885 Online Video Marketing Can Help You Loca FeldmanErichsen8038 18 2022.02.20 12:57
834884 Online Poker Strategy That Works For Any CollinsLangley0885 9 2022.02.20 12:57
834883 Situs Judi Slots Online Terbaik yang Sem HunterHickey7933 9 2022.02.20 12:57